sensor_id;sensor_type;location;lat;lon;timestamp;P1;durP1;ratioP1;P2;durP2;ratioP2
82495;SDS011;72133;42.522;24.800;2023-11-21T00:00:13;3.30;;;1.58;;
82495;SDS011;72133;42.522;24.800;2023-11-21T00:02:40;2.13;;;1.50;;
82495;SDS011;72133;42.522;24.800;2023-11-21T00:05:07;2.03;;;1.27;;
82495;SDS011;72133;42.522;24.800;2023-11-21T00:07:34;5.05;;;1.45;;
82495;SDS011;72133;42.522;24.800;2023-11-21T00:10:01;2.15;;;1.40;;
82495;SDS011;72133;42.522;24.800;2023-11-21T00:12:28;2.40;;;1.45;;
82495;SDS011;72133;42.522;24.800;2023-11-21T00:14:54;3.55;;;1.40;;
82495;SDS011;72133;42.522;24.800;2023-11-21T00:17:20;2.13;;;1.20;;
82495;SDS011;72133;42.522;24.800;2023-11-21T00:19:46;3.13;;;1.30;;
82495;SDS011;72133;42.522;24.800;2023-11-21T00:22:11;2.03;;;1.30;;
82495;SDS011;72133;42.522;24.800;2023-11-21T00:24:37;3.38;;;1.30;;
82495;SDS011;72133;42.522;24.800;2023-11-21T00:27:02;2.78;;;1.42;;
82495;SDS011;72133;42.522;24.800;2023-11-21T00:29:28;1.55;;;1.20;;
82495;SDS011;72133;42.522;24.800;2023-11-21T00:31:54;2.45;;;1.27;;
82495;SDS011;72133;42.522;24.800;2023-11-21T00:34:19;3.05;;;1.75;;
82495;SDS011;72133;42.522;24.800;2023-11-21T00:36:45;2.80;;;1.48;;
82495;SDS011;72133;42.522;24.800;2023-11-21T00:39:11;2.03;;;1.20;;
82495;SDS011;72133;42.522;24.800;2023-11-21T00:41:37;5.60;;;1.38;;
82495;SDS011;72133;42.522;24.800;2023-11-21T00:44:02;2.13;;;1.17;;
82495;SDS011;72133;42.522;24.800;2023-11-21T00:46:29;3.28;;;1.25;;
82495;SDS011;72133;42.522;24.800;2023-11-21T00:48:54;4.95;;;2.28;;
82495;SDS011;72133;42.522;24.800;2023-11-21T00:51:20;1.48;;;1.10;;
82495;SDS011;72133;42.522;24.800;2023-11-21T00:53:47;2.47;;;1.50;;
82495;SDS011;72133;42.522;24.800;2023-11-21T00:56:13;2.22;;;1.33;;
82495;SDS011;72133;42.522;24.800;2023-11-21T00:58:39;1.58;;;1.10;;
82495;SDS011;72133;42.522;24.800;2023-11-21T01:01:09;1.63;;;1.20;;
82495;SDS011;72133;42.522;24.800;2023-11-21T01:03:34;4.35;;;1.45;;
82495;SDS011;72133;42.522;24.800;2023-11-21T01:06:00;2.03;;;1.40;;
82495;SDS011;72133;42.522;24.800;2023-11-21T01:08:26;5.80;;;1.58;;
82495;SDS011;72133;42.522;24.800;2023-11-21T01:10:52;3.55;;;2.15;;
82495;SDS011;72133;42.522;24.800;2023-11-21T01:13:17;3.33;;;1.08;;
82495;SDS011;72133;42.522;24.800;2023-11-21T01:15:43;2.10;;;1.38;;
82495;SDS011;72133;42.522;24.800;2023-11-21T01:18:09;2.25;;;1.40;;
82495;SDS011;72133;42.522;24.800;2023-11-21T01:20:34;2.83;;;1.40;;
82495;SDS011;72133;42.522;24.800;2023-11-21T01:23:00;4.47;;;3.05;;
82495;SDS011;72133;42.522;24.800;2023-11-21T01:25:26;3.22;;;1.30;;
82495;SDS011;72133;42.522;24.800;2023-11-21T01:27:51;3.22;;;1.52;;
82495;SDS011;72133;42.522;24.800;2023-11-21T01:30:17;3.63;;;1.55;;
82495;SDS011;72133;42.522;24.800;2023-11-21T01:32:43;3.80;;;1.50;;
82495;SDS011;72133;42.522;24.800;2023-11-21T01:35:09;3.30;;;1.77;;
82495;SDS011;72133;42.522;24.800;2023-11-21T01:37:35;3.03;;;1.80;;
82495;SDS011;72133;42.522;24.800;2023-11-21T01:40:02;3.47;;;1.70;;
82495;SDS011;72133;42.522;24.800;2023-11-21T01:42:31;3.15;;;1.58;;
82495;SDS011;72133;42.522;24.800;2023-11-21T01:44:56;3.42;;;1.55;;
82495;SDS011;72133;42.522;24.800;2023-11-21T01:47:22;3.35;;;1.60;;
82495;SDS011;72133;42.522;24.800;2023-11-21T01:49:47;3.55;;;1.73;;
82495;SDS011;72133;42.522;24.800;2023-11-21T01:52:13;3.17;;;1.83;;
82495;SDS011;72133;42.522;24.800;2023-11-21T01:54:40;2.58;;;1.70;;
82495;SDS011;72133;42.522;24.800;2023-11-21T01:57:07;2.45;;;1.60;;
82495;SDS011;72133;42.522;24.800;2023-11-21T01:59:36;3.10;;;1.83;;
82495;SDS011;72133;42.522;24.800;2023-11-21T02:02:05;2.60;;;1.50;;
82495;SDS011;72133;42.522;24.800;2023-11-21T02:04:35;4.85;;;1.80;;
82495;SDS011;72133;42.522;24.800;2023-11-21T02:07:04;2.75;;;1.70;;
82495;SDS011;72133;42.522;24.800;2023-11-21T02:09:33;2.83;;;1.55;;
82495;SDS011;72133;42.522;24.800;2023-11-21T02:11:59;1.83;;;1.23;;
82495;SDS011;72133;42.522;24.800;2023-11-21T02:14:25;4.22;;;1.58;;
82495;SDS011;72133;42.522;24.800;2023-11-21T02:16:53;2.33;;;1.77;;
82495;SDS011;72133;42.522;24.800;2023-11-21T02:19:19;3.55;;;1.70;;
82495;SDS011;72133;42.522;24.800;2023-11-21T02:21:51;1.92;;;1.42;;
82495;SDS011;72133;42.522;24.800;2023-11-21T02:24:20;3.78;;;1.65;;
82495;SDS011;72133;42.522;24.800;2023-11-21T02:26:47;2.88;;;1.90;;
82495;SDS011;72133;42.522;24.800;2023-11-21T02:29:18;2.85;;;1.65;;
82495;SDS011;72133;42.522;24.800;2023-11-21T02:31:47;2.45;;;1.60;;
82495;SDS011;72133;42.522;24.800;2023-11-21T02:34:17;2.33;;;1.60;;
82495;SDS011;72133;42.522;24.800;2023-11-21T02:36:46;2.50;;;1.42;;
82495;SDS011;72133;42.522;24.800;2023-11-21T02:39:12;2.53;;;1.60;;
82495;SDS011;72133;42.522;24.800;2023-11-21T02:41:38;6.82;;;5.40;;
82495;SDS011;72133;42.522;24.800;2023-11-21T02:44:04;5.43;;;4.50;;
82495;SDS011;72133;42.522;24.800;2023-11-21T02:46:31;6.18;;;3.28;;
82495;SDS011;72133;42.522;24.800;2023-11-21T02:49:03;4.53;;;2.40;;
82495;SDS011;72133;42.522;24.800;2023-11-21T02:51:31;4.13;;;2.47;;
82495;SDS011;72133;42.522;24.800;2023-11-21T02:53:57;3.75;;;2.25;;
82495;SDS011;72133;42.522;24.800;2023-11-21T02:58:56;4.10;;;2.30;;
82495;SDS011;72133;42.522;24.800;2023-11-21T03:01:21;3.05;;;1.95;;
82495;SDS011;72133;42.522;24.800;2023-11-21T03:03:48;3.08;;;1.60;;
82495;SDS011;72133;42.522;24.800;2023-11-21T03:06:16;4.53;;;1.95;;
82495;SDS011;72133;42.522;24.800;2023-11-21T03:08:43;3.30;;;2.10;;
82495;SDS011;72133;42.522;24.800;2023-11-21T03:11:09;3.03;;;1.70;;
82495;SDS011;72133;42.522;24.800;2023-11-21T03:13:34;2.65;;;1.63;;
82495;SDS011;72133;42.522;24.800;2023-11-21T03:16:00;3.05;;;1.83;;
82495;SDS011;72133;42.522;24.800;2023-11-21T03:18:25;3.63;;;1.90;;
82495;SDS011;72133;42.522;24.800;2023-11-21T03:20:54;5.40;;;1.80;;
82495;SDS011;72133;42.522;24.800;2023-11-21T03:23:19;3.20;;;2.00;;
82495;SDS011;72133;42.522;24.800;2023-11-21T03:25:45;4.22;;;1.85;;
82495;SDS011;72133;42.522;24.800;2023-11-21T03:28:11;4.30;;;2.17;;
82495;SDS011;72133;42.522;24.800;2023-11-21T03:30:37;4.10;;;1.80;;
82495;SDS011;72133;42.522;24.800;2023-11-21T03:33:02;4.45;;;2.70;;
82495;SDS011;72133;42.522;24.800;2023-11-21T03:35:28;5.10;;;2.50;;
82495;SDS011;72133;42.522;24.800;2023-11-21T03:37:53;5.68;;;2.65;;
82495;SDS011;72133;42.522;24.800;2023-11-21T03:40:19;4.38;;;2.17;;
82495;SDS011;72133;42.522;24.800;2023-11-21T03:42:46;3.30;;;2.15;;
82495;SDS011;72133;42.522;24.800;2023-11-21T03:45:12;4.70;;;1.80;;
82495;SDS011;72133;42.522;24.800;2023-11-21T03:47:40;4.88;;;1.90;;
82495;SDS011;72133;42.522;24.800;2023-11-21T03:50:07;3.78;;;2.22;;
82495;SDS011;72133;42.522;24.800;2023-11-21T03:52:34;3.42;;;1.80;;
82495;SDS011;72133;42.522;24.800;2023-11-21T03:55:00;4.72;;;1.98;;
82495;SDS011;72133;42.522;24.800;2023-11-21T03:57:26;4.78;;;2.30;;
82495;SDS011;72133;42.522;24.800;2023-11-21T03:59:53;4.75;;;2.08;;
82495;SDS011;72133;42.522;24.800;2023-11-21T04:02:19;3.92;;;1.98;;
82495;SDS011;72133;42.522;24.800;2023-11-21T04:04:44;5.10;;;2.03;;
82495;SDS011;72133;42.522;24.800;2023-11-21T04:07:10;3.83;;;2.05;;
82495;SDS011;72133;42.522;24.800;2023-11-21T04:09:36;3.60;;;2.10;;
82495;SDS011;72133;42.522;24.800;2023-11-21T04:12:02;4.13;;;2.42;;
82495;SDS011;72133;42.522;24.800;2023-11-21T04:14:28;3.72;;;2.17;;
82495;SDS011;72133;42.522;24.800;2023-11-21T04:16:54;4.07;;;2.67;;
82495;SDS011;72133;42.522;24.800;2023-11-21T04:19:20;3.53;;;1.80;;
82495;SDS011;72133;42.522;24.800;2023-11-21T04:21:45;3.15;;;1.77;;
82495;SDS011;72133;42.522;24.800;2023-11-21T04:24:11;3.08;;;1.92;;
82495;SDS011;72133;42.522;24.800;2023-11-21T04:26:37;4.53;;;2.17;;
82495;SDS011;72133;42.522;24.800;2023-11-21T04:29:03;4.45;;;2.63;;
82495;SDS011;72133;42.522;24.800;2023-11-21T04:31:29;3.17;;;1.98;;
82495;SDS011;72133;42.522;24.800;2023-11-21T04:33:55;5.32;;;2.13;;
82495;SDS011;72133;42.522;24.800;2023-11-21T04:36:21;3.60;;;2.22;;
82495;SDS011;72133;42.522;24.800;2023-11-21T04:38:47;4.38;;;2.30;;
82495;SDS011;72133;42.522;24.800;2023-11-21T04:41:12;3.20;;;2.15;;
82495;SDS011;72133;42.522;24.800;2023-11-21T04:43:38;6.68;;;2.20;;
82495;SDS011;72133;42.522;24.800;2023-11-21T04:46:04;2.45;;;1.85;;
82495;SDS011;72133;42.522;24.800;2023-11-21T04:48:30;4.38;;;2.03;;
82495;SDS011;72133;42.522;24.800;2023-11-21T04:50:55;4.63;;;2.08;;
82495;SDS011;72133;42.522;24.800;2023-11-21T04:53:21;3.95;;;1.88;;
82495;SDS011;72133;42.522;24.800;2023-11-21T04:55:47;2.63;;;1.70;;
82495;SDS011;72133;42.522;24.800;2023-11-21T04:58:13;2.35;;;1.55;;
82495;SDS011;72133;42.522;24.800;2023-11-21T05:00:39;3.63;;;1.73;;
82495;SDS011;72133;42.522;24.800;2023-11-21T05:03:06;3.92;;;1.75;;
82495;SDS011;72133;42.522;24.800;2023-11-21T05:05:32;5.35;;;2.17;;
82495;SDS011;72133;42.522;24.800;2023-11-21T05:07:59;6.68;;;2.28;;
82495;SDS011;72133;42.522;24.800;2023-11-21T05:10:25;4.63;;;2.20;;
82495;SDS011;72133;42.522;24.800;2023-11-21T05:12:50;4.15;;;1.73;;
82495;SDS011;72133;42.522;24.800;2023-11-21T05:15:16;4.68;;;2.20;;
82495;SDS011;72133;42.522;24.800;2023-11-21T05:17:42;7.15;;;1.98;;
82495;SDS011;72133;42.522;24.800;2023-11-21T05:20:13;4.30;;;1.63;;
82495;SDS011;72133;42.522;24.800;2023-11-21T05:22:40;5.00;;;2.25;;
82495;SDS011;72133;42.522;24.800;2023-11-21T05:25:07;5.40;;;2.47;;
82495;SDS011;72133;42.522;24.800;2023-11-21T05:27:33;4.80;;;2.28;;
82495;SDS011;72133;42.522;24.800;2023-11-21T05:30:00;2.60;;;2.17;;
82495;SDS011;72133;42.522;24.800;2023-11-21T05:32:27;4.93;;;1.98;;
82495;SDS011;72133;42.522;24.800;2023-11-21T05:34:52;4.47;;;1.90;;
82495;SDS011;72133;42.522;24.800;2023-11-21T05:37:18;3.15;;;1.98;;
82495;SDS011;72133;42.522;24.800;2023-11-21T05:39:44;4.05;;;2.50;;
82495;SDS011;72133;42.522;24.800;2023-11-21T05:42:09;4.30;;;1.90;;
82495;SDS011;72133;42.522;24.800;2023-11-21T05:44:36;3.72;;;2.25;;
82495;SDS011;72133;42.522;24.800;2023-11-21T05:47:02;5.07;;;2.17;;
82495;SDS011;72133;42.522;24.800;2023-11-21T05:49:28;5.30;;;2.30;;
82495;SDS011;72133;42.522;24.800;2023-11-21T05:51:55;5.13;;;2.22;;
82495;SDS011;72133;42.522;24.800;2023-11-21T05:54:21;3.25;;;2.00;;
82495;SDS011;72133;42.522;24.800;2023-11-21T05:56:48;4.82;;;2.30;;
82495;SDS011;72133;42.522;24.800;2023-11-21T05:59:14;3.83;;;2.15;;
82495;SDS011;72133;42.522;24.800;2023-11-21T06:01:40;3.83;;;2.10;;
82495;SDS011;72133;42.522;24.800;2023-11-21T06:04:06;4.70;;;2.42;;
82495;SDS011;72133;42.522;24.800;2023-11-21T06:06:34;5.30;;;2.40;;
82495;SDS011;72133;42.522;24.800;2023-11-21T06:09:00;4.85;;;2.15;;
82495;SDS011;72133;42.522;24.800;2023-11-21T06:11:27;7.20;;;2.65;;
82495;SDS011;72133;42.522;24.800;2023-11-21T06:13:52;3.38;;;2.03;;
82495;SDS011;72133;42.522;24.800;2023-11-21T06:16:21;3.47;;;1.85;;
82495;SDS011;72133;42.522;24.800;2023-11-21T06:18:46;3.75;;;1.67;;
82495;SDS011;72133;42.522;24.800;2023-11-21T06:21:12;4.32;;;1.90;;
82495;SDS011;72133;42.522;24.800;2023-11-21T06:23:38;3.67;;;1.80;;
82495;SDS011;72133;42.522;24.800;2023-11-21T06:26:04;5.75;;;2.53;;
82495;SDS011;72133;42.522;24.800;2023-11-21T06:28:31;4.40;;;2.60;;
82495;SDS011;72133;42.522;24.800;2023-11-21T06:30:56;6.60;;;2.45;;
82495;SDS011;72133;42.522;24.800;2023-11-21T06:33:30;6.78;;;2.38;;
82495;SDS011;72133;42.522;24.800;2023-11-21T06:35:57;4.53;;;2.13;;
82495;SDS011;72133;42.522;24.800;2023-11-21T06:38:22;5.78;;;2.40;;
82495;SDS011;72133;42.522;24.800;2023-11-21T06:40:48;4.28;;;2.25;;
82495;SDS011;72133;42.522;24.800;2023-11-21T06:43:14;5.47;;;2.58;;
82495;SDS011;72133;42.522;24.800;2023-11-21T06:45:40;5.95;;;2.92;;
82495;SDS011;72133;42.522;24.800;2023-11-21T06:48:06;5.72;;;3.55;;
82495;SDS011;72133;42.522;24.800;2023-11-21T06:50:32;5.45;;;3.17;;
82495;SDS011;72133;42.522;24.800;2023-11-21T06:52:57;6.72;;;4.07;;
82495;SDS011;72133;42.522;24.800;2023-11-21T06:55:23;5.90;;;3.60;;
82495;SDS011;72133;42.522;24.800;2023-11-21T06:57:48;6.30;;;4.88;;
82495;SDS011;72133;42.522;24.800;2023-11-21T07:00:17;6.32;;;4.25;;
82495;SDS011;72133;42.522;24.800;2023-11-21T07:02:44;7.72;;;5.88;;
82495;SDS011;72133;42.522;24.800;2023-11-21T07:05:09;7.47;;;4.93;;
82495;SDS011;72133;42.522;24.800;2023-11-21T07:07:36;8.30;;;4.85;;
82495;SDS011;72133;42.522;24.800;2023-11-21T07:10:02;6.97;;;4.60;;
82495;SDS011;72133;42.522;24.800;2023-11-21T07:12:29;6.78;;;4.20;;
82495;SDS011;72133;42.522;24.800;2023-11-21T07:14:56;9.15;;;6.78;;
82495;SDS011;72133;42.522;24.800;2023-11-21T07:17:23;6.95;;;5.00;;
82495;SDS011;72133;42.522;24.800;2023-11-21T07:19:49;6.15;;;4.70;;
82495;SDS011;72133;42.522;24.800;2023-11-21T07:22:15;16.88;;;11.90;;
82495;SDS011;72133;42.522;24.800;2023-11-21T07:24:49;23.75;;;15.38;;
82495;SDS011;72133;42.522;24.800;2023-11-21T07:27:18;13.85;;;10.25;;
82495;SDS011;72133;42.522;24.800;2023-11-21T07:29:44;6.32;;;4.70;;
82495;SDS011;72133;42.522;24.800;2023-11-21T07:32:10;8.25;;;4.55;;
82495;SDS011;72133;42.522;24.800;2023-11-21T07:34:36;8.35;;;5.28;;
82495;SDS011;72133;42.522;24.800;2023-11-21T07:37:02;8.15;;;4.50;;
82495;SDS011;72133;42.522;24.800;2023-11-21T07:39:28;9.98;;;5.53;;
82495;SDS011;72133;42.522;24.800;2023-11-21T07:41:55;7.82;;;5.28;;
82495;SDS011;72133;42.522;24.800;2023-11-21T07:44:21;6.78;;;5.22;;
82495;SDS011;72133;42.522;24.800;2023-11-21T07:46:47;6.50;;;4.97;;
82495;SDS011;72133;42.522;24.800;2023-11-21T07:49:13;8.40;;;5.93;;
82495;SDS011;72133;42.522;24.800;2023-11-21T07:51:42;6.88;;;4.28;;
82495;SDS011;72133;42.522;24.800;2023-11-21T07:54:08;8.05;;;5.18;;
82495;SDS011;72133;42.522;24.800;2023-11-21T07:56:35;8.15;;;5.72;;
82495;SDS011;72133;42.522;24.800;2023-11-21T07:59:01;9.18;;;5.80;;
82495;SDS011;72133;42.522;24.800;2023-11-21T08:01:26;8.88;;;6.18;;
82495;SDS011;72133;42.522;24.800;2023-11-21T08:03:53;8.93;;;5.03;;
82495;SDS011;72133;42.522;24.800;2023-11-21T08:06:22;4.90;;;3.50;;
82495;SDS011;72133;42.522;24.800;2023-11-21T08:08:49;6.35;;;4.00;;
82495;SDS011;72133;42.522;24.800;2023-11-21T08:11:15;6.55;;;5.05;;
82495;SDS011;72133;42.522;24.800;2023-11-21T08:13:41;6.22;;;4.72;;
82495;SDS011;72133;42.522;24.800;2023-11-21T08:16:07;6.47;;;4.80;;
82495;SDS011;72133;42.522;24.800;2023-11-21T08:18:33;6.85;;;4.18;;
82495;SDS011;72133;42.522;24.800;2023-11-21T08:20:59;6.00;;;3.85;;
82495;SDS011;72133;42.522;24.800;2023-11-21T08:23:25;7.00;;;4.07;;
82495;SDS011;72133;42.522;24.800;2023-11-21T08:25:51;7.07;;;6.38;;
82495;SDS011;72133;42.522;24.800;2023-11-21T08:28:18;4.65;;;3.38;;
82495;SDS011;72133;42.522;24.800;2023-11-21T08:30:44;4.32;;;3.30;;
82495;SDS011;72133;42.522;24.800;2023-11-21T08:33:10;4.20;;;2.90;;
82495;SDS011;72133;42.522;24.800;2023-11-21T08:35:37;4.10;;;2.97;;
82495;SDS011;72133;42.522;24.800;2023-11-21T08:38:03;5.57;;;3.00;;
82495;SDS011;72133;42.522;24.800;2023-11-21T08:40:29;5.57;;;3.10;;
82495;SDS011;72133;42.522;24.800;2023-11-21T08:42:55;4.15;;;2.60;;
82495;SDS011;72133;42.522;24.800;2023-11-21T08:45:21;4.63;;;2.22;;
82495;SDS011;72133;42.522;24.800;2023-11-21T08:47:47;5.32;;;3.00;;
82495;SDS011;72133;42.522;24.800;2023-11-21T08:50:13;6.43;;;3.40;;
82495;SDS011;72133;42.522;24.800;2023-11-21T08:52:40;4.60;;;2.67;;
82495;SDS011;72133;42.522;24.800;2023-11-21T08:55:08;6.25;;;2.60;;
82495;SDS011;72133;42.522;24.800;2023-11-21T08:57:34;5.30;;;2.65;;
82495;SDS011;72133;42.522;24.800;2023-11-21T09:00:00;6.63;;;3.80;;
82495;SDS011;72133;42.522;24.800;2023-11-21T09:02:27;4.82;;;3.42;;
82495;SDS011;72133;42.522;24.800;2023-11-21T09:04:52;4.95;;;3.13;;
82495;SDS011;72133;42.522;24.800;2023-11-21T09:07:18;5.65;;;3.72;;
82495;SDS011;72133;42.522;24.800;2023-11-21T09:09:48;5.78;;;3.53;;
82495;SDS011;72133;42.522;24.800;2023-11-21T09:12:14;6.43;;;3.38;;
82495;SDS011;72133;42.522;24.800;2023-11-21T09:14:41;5.78;;;3.28;;
82495;SDS011;72133;42.522;24.800;2023-11-21T09:17:07;4.72;;;2.95;;
82495;SDS011;72133;42.522;24.800;2023-11-21T09:19:36;4.50;;;2.40;;
82495;SDS011;72133;42.522;24.800;2023-11-21T09:22:02;4.40;;;2.72;;
82495;SDS011;72133;42.522;24.800;2023-11-21T09:24:28;3.38;;;1.77;;
82495;SDS011;72133;42.522;24.800;2023-11-21T09:26:55;4.70;;;2.38;;
82495;SDS011;72133;42.522;24.800;2023-11-21T09:29:21;3.78;;;2.00;;
82495;SDS011;72133;42.522;24.800;2023-11-21T09:31:47;3.40;;;1.80;;
82495;SDS011;72133;42.522;24.800;2023-11-21T09:34:13;3.45;;;1.80;;
82495;SDS011;72133;42.522;24.800;2023-11-21T09:36:38;3.33;;;1.90;;
82495;SDS011;72133;42.522;24.800;2023-11-21T09:39:04;3.85;;;2.25;;
82495;SDS011;72133;42.522;24.800;2023-11-21T09:41:36;3.80;;;2.00;;
82495;SDS011;72133;42.522;24.800;2023-11-21T09:44:06;3.25;;;1.63;;
82495;SDS011;72133;42.522;24.800;2023-11-21T09:46:36;3.38;;;1.80;;
82495;SDS011;72133;42.522;24.800;2023-11-21T09:49:04;4.65;;;1.85;;
82495;SDS011;72133;42.522;24.800;2023-11-21T09:51:33;4.28;;;1.77;;
82495;SDS011;72133;42.522;24.800;2023-11-21T09:54:03;4.90;;;2.22;;
82495;SDS011;72133;42.522;24.800;2023-11-21T09:56:34;3.85;;;2.30;;
82495;SDS011;72133;42.522;24.800;2023-11-21T09:59:01;5.25;;;2.63;;
82495;SDS011;72133;42.522;24.800;2023-11-21T10:01:32;3.47;;;2.03;;
82495;SDS011;72133;42.522;24.800;2023-11-21T10:03:58;4.22;;;2.28;;
82495;SDS011;72133;42.522;24.800;2023-11-21T10:06:24;3.30;;;2.00;;
82495;SDS011;72133;42.522;24.800;2023-11-21T10:08:52;3.85;;;2.03;;
82495;SDS011;72133;42.522;24.800;2023-11-21T10:11:20;3.67;;;2.08;;
82495;SDS011;72133;42.522;24.800;2023-11-21T10:13:46;4.60;;;2.20;;
82495;SDS011;72133;42.522;24.800;2023-11-21T10:16:14;4.80;;;2.35;;
82495;SDS011;72133;42.522;24.800;2023-11-21T10:18:41;4.38;;;2.45;;
82495;SDS011;72133;42.522;24.800;2023-11-21T10:21:07;4.45;;;2.83;;
82495;SDS011;72133;42.522;24.800;2023-11-21T10:23:34;6.25;;;4.10;;
82495;SDS011;72133;42.522;24.800;2023-11-21T10:25:59;10.57;;;5.78;;
82495;SDS011;72133;42.522;24.800;2023-11-21T10:28:26;5.32;;;2.92;;
82495;SDS011;72133;42.522;24.800;2023-11-21T10:30:52;4.10;;;2.50;;
82495;SDS011;72133;42.522;24.800;2023-11-21T10:33:17;6.07;;;3.80;;
82495;SDS011;72133;42.522;24.800;2023-11-21T10:35:52;10.27;;;6.82;;
82495;SDS011;72133;42.522;24.800;2023-11-21T10:38:20;6.50;;;4.10;;
82495;SDS011;72133;42.522;24.800;2023-11-21T10:40:48;4.82;;;3.22;;
82495;SDS011;72133;42.522;24.800;2023-11-21T10:43:14;4.53;;;2.65;;
82495;SDS011;72133;42.522;24.800;2023-11-21T10:45:42;4.75;;;2.75;;
82495;SDS011;72133;42.522;24.800;2023-11-21T10:48:14;5.18;;;2.70;;
82495;SDS011;72133;42.522;24.800;2023-11-21T10:50:41;5.57;;;2.83;;
82495;SDS011;72133;42.522;24.800;2023-11-21T10:53:07;4.60;;;2.30;;
82495;SDS011;72133;42.522;24.800;2023-11-21T10:55:33;4.75;;;2.65;;
82495;SDS011;72133;42.522;24.800;2023-11-21T10:58:00;3.78;;;2.47;;
82495;SDS011;72133;42.522;24.800;2023-11-21T11:00:28;4.68;;;2.50;;
82495;SDS011;72133;42.522;24.800;2023-11-21T11:02:54;4.20;;;2.33;;
82495;SDS011;72133;42.522;24.800;2023-11-21T11:05:21;4.05;;;2.10;;
82495;SDS011;72133;42.522;24.800;2023-11-21T11:07:54;4.80;;;2.58;;
82495;SDS011;72133;42.522;24.800;2023-11-21T11:10:26;5.85;;;2.42;;
82495;SDS011;72133;42.522;24.800;2023-11-21T11:12:54;4.43;;;2.72;;
82495;SDS011;72133;42.522;24.800;2023-11-21T11:15:20;3.88;;;2.45;;
82495;SDS011;72133;42.522;24.800;2023-11-21T11:17:47;4.60;;;2.63;;
82495;SDS011;72133;42.522;24.800;2023-11-21T11:20:14;4.70;;;2.53;;
82495;SDS011;72133;42.522;24.800;2023-11-21T11:22:44;6.03;;;2.70;;
82495;SDS011;72133;42.522;24.800;2023-11-21T11:25:25;5.40;;;3.10;;
82495;SDS011;72133;42.522;24.800;2023-11-21T11:33:47;3.22;;;2.08;;
82495;SDS011;72133;42.522;24.800;2023-11-21T11:36:23;4.05;;;2.42;;
82495;SDS011;72133;42.522;24.800;2023-11-21T11:38:51;5.03;;;2.65;;
82495;SDS011;72133;42.522;24.800;2023-11-21T11:41:28;4.82;;;2.80;;
82495;SDS011;72133;42.522;24.800;2023-11-21T11:43:58;6.28;;;2.95;;
82495;SDS011;72133;42.522;24.800;2023-11-21T11:46:42;5.63;;;3.13;;
82495;SDS011;72133;42.522;24.800;2023-11-21T11:49:24;5.90;;;3.47;;
82495;SDS011;72133;42.522;24.800;2023-11-21T11:54:56;6.07;;;3.70;;
82495;SDS011;72133;42.522;24.800;2023-11-21T11:57:24;6.38;;;3.53;;
82495;SDS011;72133;42.522;24.800;2023-11-21T12:00:09;6.85;;;3.35;;
82495;SDS011;72133;42.522;24.800;2023-11-21T12:02:36;5.10;;;3.33;;
82495;SDS011;72133;42.522;24.800;2023-11-21T12:05:09;6.10;;;3.63;;
82495;SDS011;72133;42.522;24.800;2023-11-21T12:10:18;5.93;;;3.65;;
82495;SDS011;72133;42.522;24.800;2023-11-21T12:12:54;6.72;;;2.92;;
82495;SDS011;72133;42.522;24.800;2023-11-21T12:15:21;5.85;;;3.22;;
82495;SDS011;72133;42.522;24.800;2023-11-21T12:17:47;5.03;;;2.90;;
82495;SDS011;72133;42.522;24.800;2023-11-21T12:20:14;5.32;;;2.90;;
82495;SDS011;72133;42.522;24.800;2023-11-21T12:22:45;6.43;;;3.13;;
82495;SDS011;72133;42.522;24.800;2023-11-21T12:25:15;5.47;;;2.65;;
82495;SDS011;72133;42.522;24.800;2023-11-21T12:27:44;5.30;;;3.00;;
82495;SDS011;72133;42.522;24.800;2023-11-21T12:30:15;5.00;;;3.08;;
82495;SDS011;72133;42.522;24.800;2023-11-21T12:32:43;6.40;;;3.20;;
82495;SDS011;72133;42.522;24.800;2023-11-21T12:35:11;5.75;;;3.42;;
82495;SDS011;72133;42.522;24.800;2023-11-21T12:37:37;6.15;;;3.53;;
82495;SDS011;72133;42.522;24.800;2023-11-21T12:40:07;5.80;;;3.60;;
82495;SDS011;72133;42.522;24.800;2023-11-21T12:42:36;6.07;;;3.15;;
82495;SDS011;72133;42.522;24.800;2023-11-21T12:48:00;5.70;;;3.75;;
82495;SDS011;72133;42.522;24.800;2023-11-21T12:50:29;6.25;;;3.40;;
82495;SDS011;72133;42.522;24.800;2023-11-21T12:53:00;7.97;;;5.47;;
82495;SDS011;72133;42.522;24.800;2023-11-21T12:55:29;9.38;;;5.90;;
82495;SDS011;72133;42.522;24.800;2023-11-21T12:57:56;7.97;;;5.63;;
82495;SDS011;72133;42.522;24.800;2023-11-21T13:00:31;7.22;;;5.38;;
82495;SDS011;72133;42.522;24.800;2023-11-21T13:02:59;5.90;;;3.92;;
82495;SDS011;72133;42.522;24.800;2023-11-21T13:07:58;7.37;;;4.10;;
82495;SDS011;72133;42.522;24.800;2023-11-21T13:10:25;7.97;;;5.97;;
82495;SDS011;72133;42.522;24.800;2023-11-21T13:12:54;8.02;;;5.50;;
82495;SDS011;72133;42.522;24.800;2023-11-21T13:15:23;7.28;;;4.65;;
82495;SDS011;72133;42.522;24.800;2023-11-21T13:17:58;7.85;;;3.85;;
82495;SDS011;72133;42.522;24.800;2023-11-21T13:20:27;5.68;;;3.50;;
82495;SDS011;72133;42.522;24.800;2023-11-21T13:22:54;6.78;;;3.13;;
82495;SDS011;72133;42.522;24.800;2023-11-21T13:25:24;4.72;;;3.00;;
82495;SDS011;72133;42.522;24.800;2023-11-21T13:27:56;6.03;;;3.67;;
82495;SDS011;72133;42.522;24.800;2023-11-21T13:30:23;5.13;;;3.80;;
82495;SDS011;72133;42.522;24.800;2023-11-21T13:32:59;6.22;;;3.42;;
82495;SDS011;72133;42.522;24.800;2023-11-21T13:35:35;6.13;;;3.67;;
82495;SDS011;72133;42.522;24.800;2023-11-21T13:38:17;5.80;;;3.47;;
82495;SDS011;72133;42.522;24.800;2023-11-21T13:40:52;5.47;;;3.63;;
82495;SDS011;72133;42.522;24.800;2023-11-21T13:43:20;7.25;;;3.70;;
82495;SDS011;72133;42.522;24.800;2023-11-21T13:45:47;8.05;;;4.80;;
82495;SDS011;72133;42.522;24.800;2023-11-21T13:48:23;6.97;;;3.90;;
82495;SDS011;72133;42.522;24.800;2023-11-21T13:51:07;7.07;;;3.72;;
82495;SDS011;72133;42.522;24.800;2023-11-21T13:53:41;10.13;;;3.88;;
82495;SDS011;72133;42.522;24.800;2023-11-21T13:56:07;5.82;;;3.03;;
82495;SDS011;72133;42.522;24.800;2023-11-21T13:58:34;6.03;;;3.38;;
82495;SDS011;72133;42.522;24.800;2023-11-21T14:01:16;6.18;;;3.90;;
82495;SDS011;72133;42.522;24.800;2023-11-21T14:04:00;5.10;;;3.00;;
82495;SDS011;72133;42.522;24.800;2023-11-21T14:06:38;5.63;;;3.45;;
82495;SDS011;72133;42.522;24.800;2023-11-21T14:09:14;6.22;;;3.03;;
82495;SDS011;72133;42.522;24.800;2023-11-21T14:11:49;7.38;;;3.70;;
82495;SDS011;72133;42.522;24.800;2023-11-21T14:14:16;6.10;;;3.53;;
82495;SDS011;72133;42.522;24.800;2023-11-21T14:16:43;5.97;;;3.53;;
82495;SDS011;72133;42.522;24.800;2023-11-21T14:19:09;5.68;;;3.25;;
82495;SDS011;72133;42.522;24.800;2023-11-21T14:21:41;6.32;;;3.40;;
82495;SDS011;72133;42.522;24.800;2023-11-21T14:24:11;4.78;;;3.20;;
82495;SDS011;72133;42.522;24.800;2023-11-21T14:26:41;5.60;;;3.22;;
82495;SDS011;72133;42.522;24.800;2023-11-21T14:29:08;4.28;;;3.00;;
82495;SDS011;72133;42.522;24.800;2023-11-21T14:31:34;5.22;;;3.20;;
82495;SDS011;72133;42.522;24.800;2023-11-21T14:34:00;6.45;;;3.33;;
82495;SDS011;72133;42.522;24.800;2023-11-21T14:36:31;4.82;;;3.45;;
82495;SDS011;72133;42.522;24.800;2023-11-21T14:38:57;5.75;;;3.58;;
82495;SDS011;72133;42.522;24.800;2023-11-21T14:41:22;7.40;;;3.65;;
82495;SDS011;72133;42.522;24.800;2023-11-21T14:43:53;6.25;;;4.10;;
82495;SDS011;72133;42.522;24.800;2023-11-21T14:46:20;20.75;;;16.58;;
82495;SDS011;72133;42.522;24.800;2023-11-21T14:48:45;6.15;;;4.38;;
82495;SDS011;72133;42.522;24.800;2023-11-21T14:51:24;10.40;;;7.68;;
82495;SDS011;72133;42.522;24.800;2023-11-21T14:53:56;11.38;;;7.50;;